Time;durP1;ratioP1;P1;durP2;ratioP2;P2;SDS_P1;SDS_P2;PMS_P1;PMS_P2;Temp;Humidity;BMP_temperature;BMP_pressure;BME280_temperature;BME280_humidity;BME280_pressure;Samples;Min_cycle;Max_cycle;Signal;HPM_P1;HPM_P2
2024/04/08 00:00:51;;;;;;;;;;;;;;;20.71;51.87;99305.41;4162712;28;20012;-67
2024/04/08 00:02:51;;;;;;;;;;;;;;;20.77;51.81;99300.97;4163959;28;19916;-67
2024/04/08 00:04:52;;;;;;;;;;;;;;;20.85;51.24;99299.84;4164008;28;19916;-67
2024/04/08 00:06:52;;;;;;;;;;;;;;;20.98;50.68;99291.47;4164113;28;19917;-67
2024/04/08 00:08:52;;;;;;;;;;;;;;;20.93;50.86;99296.78;4163747;28;19924;-65
2024/04/08 00:10:52;;;;;;;;;;;;;;;20.97;50.53;99281.66;4162720;28;19915;-66
2024/04/08 00:12:53;;;;;;;;;;;;;;;20.84;50.96;99271.03;4164036;28;19908;-66
2024/04/08 00:14:53;;;;;;;;;;;;;;;20.83;51.25;99272.06;4163669;28;19962;-65
2024/04/08 00:16:53;;;;;;;;;;;;;;;20.92;50.88;99265.25;4164314;28;19920;-67
2024/04/08 00:18:53;;;;;;;;;;;;;;;20.94;51.10;99270.44;4164620;28;19908;-65
2024/04/08 00:21:00;;;;;;;;;;;;;;;20.90;50.93;99280.13;4163085;28;20404;-65
2024/04/08 00:23:01;;;;;;;;;;;;;;;20.81;51.58;99283.19;4163585;28;19909;-67
2024/04/08 00:25:01;;;;;;;;;;;;;;;20.64;52.35;99293.81;4162309;28;19996;-65
2024/04/08 00:27:02;;;;;;;;;;;;;;;20.49;53.01;99298.84;4163715;28;19917;-65
2024/04/08 00:29:03;;;;;;;;;;;;;;;20.53;52.95;99297.31;4163618;28;19945;-67
2024/04/08 00:31:07;;;;;;;;;;;;;;;20.31;53.46;99311.34;4163519;28;20383;-66
2024/04/08 00:33:07;;;;;;;;;;;;;;;20.03;54.79;99299.13;4163802;28;19995;-66
2024/04/08 00:35:08;;;;;;;;;;;;;;;20.16;54.77;99289.19;4163666;28;19913;-66
2024/04/08 00:37:08;;;;;;;;;;;;;;;20.35;54.13;99292.75;4163459;28;19916;-66
2024/04/08 00:39:08;;;;;;;;;;;;;;;20.34;54.07;99283.75;4163464;28;19908;-66
2024/04/08 00:41:09;;;;;;;;;;;;;;;20.42;53.74;99282.63;4161485;28;19916;-66
2024/04/08 00:43:09;;;;;;;;;;;;;;;20.15;54.13;99282.09;4163422;28;19958;-67
2024/04/08 00:45:09;;;;;;;;;;;;;;;20.08;54.33;99290.31;4163251;28;19925;-66
2024/04/08 00:47:10;;;;;;;;;;;;;;;20.05;54.33;99285.34;4163508;28;19944;-64
2024/04/08 00:49:11;;;;;;;;;;;;;;;20.23;53.96;99285.34;4163315;28;19909;-67
2024/04/08 00:51:11;;;;;;;;;;;;;;;19.99;54.27;99287.09;4162502;28;19928;-67
2024/04/08 00:53:12;;;;;;;;;;;;;;;19.88;54.58;99282.41;4162292;28;19933;-67
2024/04/08 00:55:12;;;;;;;;;;;;;;;20.10;54.22;99277.34;4163124;28;20388;-66
2024/04/08 00:57:13;;;;;;;;;;;;;;;20.08;53.87;99274.03;4163240;28;19967;-67
2024/04/08 00:59:14;;;;;;;;;;;;;;;20.08;53.98;99274.88;4163439;28;19963;-66
2024/04/08 01:01:17;;;;;;;;;;;;;;;20.15;53.56;99277.53;4165137;28;20202;-66
2024/04/08 01:03:17;;;;;;;;;;;;;;;20.16;53.40;99279.19;4174390;28;20328;-68
2024/04/08 01:05:17;;;;;;;;;;;;;;;20.25;53.41;99269.69;4170334;28;19932;-67
2024/04/08 01:07:18;;;;;;;;;;;;;;;20.32;53.29;99268.75;4167753;28;19909;-66
2024/04/08 01:09:18;;;;;;;;;;;;;;;20.32;53.14;99268.75;4170768;28;19917;-67
2024/04/08 01:11:18;;;;;;;;;;;;;;;20.13;53.28;99273.34;4171166;28;19909;-65
2024/04/08 01:13:19;;;;;;;;;;;;;;;20.14;53.53;99277.72;4173771;28;20314;-67
2024/04/08 01:15:19;;;;;;;;;;;;;;;20.16;53.46;99273.75;4168525;28;20050;-67
2024/04/08 01:17:19;;;;;;;;;;;;;;;20.23;53.26;99277.22;4167155;28;19919;-66
2024/04/08 01:19:23;;;;;;;;;;;;;;;20.22;53.21;99272.84;4165813;28;20277;-67
2024/04/08 01:21:23;;;;;;;;;;;;;;;19.98;53.73;99273.75;4161578;28;19971;-67
2024/04/08 01:23:24;;;;;;;;;;;;;;;19.86;54.47;99277.22;4162815;28;20007;-67
2024/04/08 01:25:24;;;;;;;;;;;;;;;20.02;54.50;99281.22;4162792;28;20320;-67
2024/04/08 01:27:28;;;;;;;;;;;;;;;20.07;53.94;99277.81;4163010;28;19963;-66
2024/04/08 01:29:28;;;;;;;;;;;;;;;20.19;53.78;99286.03;4162029;28;19909;-65
2024/04/08 01:31:28;;;;;;;;;;;;;;;20.18;53.91;99281.66;4162914;28;19936;-66
2024/04/08 01:33:29;;;;;;;;;;;;;;;20.07;54.42;99278.66;4162845;28;19987;-65
2024/04/08 01:35:29;;;;;;;;;;;;;;;20.16;54.16;99281.06;4162501;28;19913;-65
2024/04/08 01:37:30;;;;;;;;;;;;;;;20.15;53.95;99277.53;4162838;28;19917;-67
2024/04/08 01:39:30;;;;;;;;;;;;;;;20.19;53.97;99280.59;4159384;28;19942;-67
2024/04/08 01:41:31;;;;;;;;;;;;;;;20.23;53.67;99270.94;4159927;28;20282;-67
2024/04/08 01:43:31;;;;;;;;;;;;;;;19.99;54.27;99276.22;4150711;28;19916;-65
2024/04/08 01:45:32;;;;;;;;;;;;;;;20.12;54.01;99286.09;4163709;28;19909;-67
2024/04/08 01:47:32;;;;;;;;;;;;;;;19.88;54.71;99291.38;4168419;28;19908;-64
2024/04/08 01:49:32;;;;;;;;;;;;;;;20.06;54.05;99298.69;4161275;28;20289;-67
2024/04/08 01:51:33;;;;;;;;;;;;;;;20.08;54.20;99296.59;4163214;28;19998;-67
2024/04/08 01:53:33;;;;;;;;;;;;;;;20.05;54.26;99296.22;4164967;28;19909;-66
2024/04/08 01:55:33;;;;;;;;;;;;;;;20.13;54.14;99295.06;4164258;28;19913;-66
2024/04/08 01:57:34;;;;;;;;;;;;;;;20.13;54.14;99287.75;4173584;28;19917;-66
2024/04/08 01:59:34;;;;;;;;;;;;;;;20.04;54.39;99289.94;4188570;28;20396;-66
2024/04/08 02:01:34;;;;;;;;;;;;;;;20.15;54.14;99288.38;4191137;28;19970;-67
2024/04/08 02:03:35;;;;;;;;;;;;;;;19.95;54.75;99288.56;4190683;28;19913;-66
2024/04/08 02:05:35;;;;;;;;;;;;;;;20.05;54.26;99286.16;4189745;28;19908;-66
2024/04/08 02:07:35;;;;;;;;;;;;;;;20.06;53.90;99287.84;4183393;28;19915;-67
2024/04/08 02:09:35;;;;;;;;;;;;;;;20.19;53.50;99286.84;4177961;28;20446;-65
2024/04/08 02:11:36;;;;;;;;;;;;;;;20.13;53.59;99292.34;4178547;28;19908;-65
2024/04/08 02:13:36;;;;;;;;;;;;;;;20.16;54.20;99284.59;4178665;28;19952;-65
2024/04/08 02:15:36;;;;;;;;;;;;;;;19.99;54.60;99289.78;4178812;28;19923;-66
2024/04/08 02:17:37;;;;;;;;;;;;;;;19.93;55.06;99298.84;4179034;28;20316;-68
2024/04/08 02:19:37;;;;;;;;;;;;;;;19.92;55.04;99297.19;4178188;28;19909;-65
2024/04/08 02:21:37;;;;;;;;;;;;;;;19.95;54.97;99296.72;4178648;28;19912;-67
2024/04/08 02:23:38;;;;;;;;;;;;;;;19.88;54.88;99302.22;4181277;28;19909;-67
2024/04/08 02:25:39;;;;;;;;;;;;;;;19.63;55.70;99307.66;4182522;28;19951;-67
2024/04/08 02:27:40;;;;;;;;;;;;;;;19.57;56.03;99309.34;4182402;28;19999;-67
2024/04/08 02:29:40;;;;;;;;;;;;;;;19.80;55.25;99306.03;4184329;28;19909;-68
2024/04/08 02:31:40;;;;;;;;;;;;;;;19.58;56.06;99318.31;4185556;28;19909;-66
2024/04/08 02:33:41;;;;;;;;;;;;;;;19.64;55.62;99306.59;4193131;28;19916;-66
2024/04/08 02:35:41;;;;;;;;;;;;;;;19.78;55.76;99310.81;4192577;28;19948;-68
2024/04/08 02:37:42;;;;;;;;;;;;;;;19.77;55.73;99305.63;4192077;28;19912;-65
2024/04/08 02:39:42;;;;;;;;;;;;;;;19.63;55.81;99308.47;4183104;28;19913;-65
2024/04/08 02:41:42;;;;;;;;;;;;;;;19.73;55.82;99309.84;4182183;28;19909;-66
2024/04/08 02:43:43;;;;;;;;;;;;;;;19.38;56.54;99318.47;4181766;28;19932;-66
2024/04/08 02:45:43;;;;;;;;;;;;;;;19.25;56.96;99319.41;4181778;28;20624;-65
2024/04/08 02:47:43;;;;;;;;;;;;;;;19.38;56.81;99311.16;4181755;28;19916;-66
2024/04/08 02:49:44;;;;;;;;;;;;;;;19.35;56.53;99314.34;4181215;28;19952;-67
2024/04/08 02:51:45;;;;;;;;;;;;;;;19.36;57.03;99316.00;4181718;28;19908;-66
2024/04/08 02:53:46;;;;;;;;;;;;;;;19.49;56.67;99310.47;4181969;28;20450;-65
2024/04/08 02:55:46;;;;;;;;;;;;;;;19.54;56.36;99317.09;4181383;28;19912;-67
2024/04/08 02:57:48;;;;;;;;;;;;;;;19.38;56.71;99318.47;4181394;28;19947;-65
2024/04/08 02:59:48;;;;;;;;;;;;;;;19.30;57.13;99311.44;4181235;28;20530;-64
2024/04/08 03:01:48;;;;;;;;;;;;;;;19.07;57.54;99331.81;4181478;28;19952;-66
2024/04/08 03:03:48;;;;;;;;;;;;;;;19.40;56.48;99314.50;4181208;28;19913;-66
2024/04/08 03:05:49;;;;;;;;;;;;;;;19.39;56.83;99320.97;4181351;28;19909;-66
2024/04/08 03:07:52;;;;;;;;;;;;;;;19.37;57.00;99319.53;4181511;28;19913;-65
2024/04/08 03:09:52;;;;;;;;;;;;;;;19.26;57.12;99330.03;4181109;28;19912;-66
2024/04/08 03:11:52;;;;;;;;;;;;;;;19.10;57.31;99327.84;4181657;28;19916;-67
2024/04/08 03:13:53;;;;;;;;;;;;;;;19.28;57.04;99314.38;4180788;28;19916;-67
2024/04/08 03:15:56;;;;;;;;;;;;;;;19.01;58.08;99316.44;4181473;28;19958;-65
2024/04/08 03:17:57;;;;;;;;;;;;;;;19.08;58.20;99316.41;4180226;28;19913;-67
2024/04/08 03:19:58;;;;;;;;;;;;;;;19.22;57.47;99319.84;4180894;28;20380;-66
2024/04/08 03:21:58;;;;;;;;;;;;;;;19.28;57.23;99316.25;4181577;28;19947;-66
2024/04/08 03:23:58;;;;;;;;;;;;;;;19.24;57.18;99305.03;4181345;28;20520;-65
2024/04/08 03:25:59;;;;;;;;;;;;;;;19.29;57.15;99309.78;4180957;28;19912;-64
2024/04/08 03:28:00;;;;;;;;;;;;;;;19.22;57.05;99311.72;4182681;28;19917;-65
2024/04/08 03:30:01;;;;;;;;;;;;;;;19.06;57.54;99321.19;4182053;28;19908;-67
2024/04/08 03:32:01;;;;;;;;;;;;;;;19.08;57.90;99302.84;4181161;28;19909;-67
2024/04/08 03:34:02;;;;;;;;;;;;;;;19.04;57.70;99317.88;4180107;28;19923;-66
2024/04/08 03:36:07;;;;;;;;;;;;;;;18.84;58.48;99319.63;4180683;28;19967;-65
2024/04/08 03:38:08;;;;;;;;;;;;;;;18.89;58.27;99320.88;4181268;28;20065;-66
2024/04/08 03:40:10;;;;;;;;;;;;;;;18.99;57.83;99323.94;4180459;28;19913;-66
2024/04/08 03:42:11;;;;;;;;;;;;;;;18.83;58.30;99322.56;4181365;28;19919;-65
2024/04/08 03:44:11;;;;;;;;;;;;;;;18.80;58.35;99323.81;4181387;28;19909;-67
2024/04/08 03:46:12;;;;;;;;;;;;;;;18.79;58.53;99324.03;4181144;28;19909;-67
2024/04/08 03:48:12;;;;;;;;;;;;;;;18.78;58.55;99323.22;4180916;28;19920;-67
2024/04/08 03:50:12;;;;;;;;;;;;;;;18.70;58.77;99323.47;4170478;28;20518;-72
2024/04/08 03:52:12;;;;;;;;;;;;;;;18.69;58.35;99322.63;4152418;28;20341;-71
2024/04/08 03:54:13;;;;;;;;;;;;;;;18.80;58.15;99325.69;4149482;28;20416;-72
2024/04/08 03:56:13;;;;;;;;;;;;;;;18.49;59.48;99322.72;4156249;28;20588;-71
2024/04/08 03:58:13;;;;;;;;;;;;;;;18.49;58.96;99333.53;4150861;28;19941;-71
2024/04/08 04:00:14;;;;;;;;;;;;;;;18.60;59.13;99328.50;4154189;28;19915;-72
2024/04/08 04:02:14;;;;;;;;;;;;;;;18.42;59.45;99338.13;4172801;28;19909;-74
2024/04/08 04:04:14;;;;;;;;;;;;;;;18.60;58.83;99331.22;4170727;28;19909;-72
2024/04/08 04:06:15;;;;;;;;;;;;;;;18.49;59.10;99335.41;4163552;28;19909;-72
2024/04/08 04:08:15;;;;;;;;;;;;;;;18.19;60.07;99336.75;4164882;28;19917;-72
2024/04/08 04:10:17;;;;;;;;;;;;;;;18.18;59.91;99340.50;4166065;28;19909;-72
2024/04/08 04:12:17;;;;;;;;;;;;;;;18.09;60.25;99333.66;4164955;28;20004;-72
2024/04/08 04:14:18;;;;;;;;;;;;;;;18.05;60.48;99341.38;4163907;28;19916;-72
2024/04/08 04:16:18;;;;;;;;;;;;;;;18.21;60.21;99339.22;4163103;28;19917;-73
2024/04/08 04:18:18;;;;;;;;;;;;;;;18.31;60.04;99347.75;4164672;28;20381;-72
2024/04/08 04:20:21;;;;;;;;;;;;;;;18.20;59.51;99342.97;4164861;28;20556;-72
2024/04/08 04:22:21;;;;;;;;;;;;;;;18.35;59.22;99340.03;4165019;28;20447;-72
2024/04/08 04:24:21;;;;;;;;;;;;;;;18.40;59.57;99345.66;4164733;28;19913;-72
2024/04/08 04:26:22;;;;;;;;;;;;;;;18.49;59.17;99344.38;4164767;28;19912;-72
2024/04/08 04:28:22;;;;;;;;;;;;;;;18.28;59.26;99353.56;4164986;28;19966;-73
2024/04/08 04:30:23;;;;;;;;;;;;;;;18.41;59.18;99350.03;4164043;28;19948;-74
2024/04/08 04:32:23;;;;;;;;;;;;;;;18.24;59.31;99358.56;4164948;28;19913;-71
2024/04/08 04:34:23;;;;;;;;;;;;;;;18.17;59.78;99349.66;4164525;28;19909;-71
2024/04/08 04:36:24;;;;;;;;;;;;;;;18.33;59.57;99350.22;4165105;28;19919;-72
2024/04/08 04:38:24;;;;;;;;;;;;;;;18.33;59.13;99351.06;4164817;28;19909;-71
2024/04/08 04:40:24;;;;;;;;;;;;;;;18.20;59.44;99351.94;4163260;28;19913;-72
2024/04/08 04:42:25;;;;;;;;;;;;;;;18.32;59.31;99352.09;4169537;28;19948;-71
2024/04/08 04:44:25;;;;;;;;;;;;;;;18.37;58.87;99352.28;4173458;28;19909;-71
2024/04/08 04:46:26;;;;;;;;;;;;;;;18.30;59.17;99345.25;4165925;28;20411;-71
2024/04/08 04:48:26;;;;;;;;;;;;;;;18.01;59.81;99358.22;4168806;28;20527;-71
2024/04/08 04:50:26;;;;;;;;;;;;;;;17.82;60.68;99358.00;4165877;28;19909;-70
2024/04/08 04:52:27;;;;;;;;;;;;;;;18.04;60.18;99352.41;4167462;28;19909;-71
2024/04/08 04:54:28;;;;;;;;;;;;;;;18.09;59.77;99356.09;4170403;28;19916;-71
2024/04/08 04:56:28;;;;;;;;;;;;;;;18.03;59.87;99356.16;4171516;28;20012;-71
2024/04/08 04:58:28;;;;;;;;;;;;;;;17.91;60.06;99359.44;4171009;28;19909;-73
2024/04/08 05:00:31;;;;;;;;;;;;;;;17.88;60.42;99354.44;4168295;28;20019;-71
2024/04/08 05:02:31;;;;;;;;;;;;;;;17.88;60.29;99359.84;4165356;28;19936;-73
2024/04/08 05:04:32;;;;;;;;;;;;;;;17.98;59.88;99359.47;4164904;28;19908;-71
2024/04/08 05:06:32;;;;;;;;;;;;;;;17.96;59.67;99355.25;4164759;28;19932;-72
2024/04/08 05:08:32;;;;;;;;;;;;;;;17.86;60.22;99355.72;4166450;28;20428;-72
2024/04/08 05:10:33;;;;;;;;;;;;;;;17.88;60.16;99357.16;4163751;28;19999;-72
2024/04/08 05:12:33;;;;;;;;;;;;;;;17.84;60.70;99363.19;4165028;28;19909;-71
2024/04/08 05:14:33;;;;;;;;;;;;;;;17.96;60.09;99357.97;4164761;28;20523;-71
2024/04/08 05:16:34;;;;;;;;;;;;;;;17.98;59.93;99364.03;4165090;28;19913;-71
2024/04/08 05:18:34;;;;;;;;;;;;;;;18.08;60.07;99362.59;4166345;28;19924;-72
2024/04/08 05:20:34;;;;;;;;;;;;;;;18.14;59.58;99365.47;4171914;28;19948;-72
2024/04/08 05:22:35;;;;;;;;;;;;;;;18.04;59.82;99372.16;4170299;28;20361;-70
2024/04/08 05:24:35;;;;;;;;;;;;;;;18.14;59.73;99362.78;4171228;28;19912;-72
2024/04/08 05:26:35;;;;;;;;;;;;;;;18.06;59.89;99371.94;4171545;28;19913;-74
2024/04/08 05:28:35;;;;;;;;;;;;;;;18.07;59.75;99381.72;4172429;28;19909;-71
2024/04/08 05:30:36;;;;;;;;;;;;;;;18.01;60.56;99374.44;4172101;28;19916;-72
2024/04/08 05:32:36;;;;;;;;;;;;;;;18.15;60.02;99380.66;4175335;28;19909;-71
2024/04/08 05:34:37;;;;;;;;;;;;;;;18.16;59.79;99376.91;4176970;28;19908;-71
2024/04/08 05:36:37;;;;;;;;;;;;;;;18.21;59.70;99374.41;4176314;28;19920;-72
2024/04/08 05:38:38;;;;;;;;;;;;;;;18.20;60.05;99386.25;4177924;28;19908;-75
2024/04/08 05:40:39;;;;;;;;;;;;;;;18.19;59.85;99380.03;4177255;28;19913;-72
2024/04/08 05:42:39;;;;;;;;;;;;;;;18.20;60.19;99386.25;4177383;28;19935;-71
2024/04/08 05:44:40;;;;;;;;;;;;;;;18.06;60.37;99388.16;4169732;28;19920;-71
2024/04/08 05:46:41;;;;;;;;;;;;;;;17.84;61.00;99391.06;4163568;28;19920;-71
2024/04/08 05:48:42;;;;;;;;;;;;;;;17.78;61.78;99384.63;4163608;28;19916;-71
2024/04/08 05:50:45;;;;;;;;;;;;;;;17.74;61.89;99391.47;4170054;28;19960;-72
2024/04/08 05:52:46;;;;;;;;;;;;;;;17.54;62.81;99391.47;4174104;28;19916;-72
2024/04/08 05:54:46;;;;;;;;;;;;;;;17.85;61.96;99398.16;4175621;28;19909;-71
2024/04/08 05:56:46;;;;;;;;;;;;;;;18.01;61.41;99382.56;4178578;28;19920;-74
2024/04/08 05:58:47;;;;;;;;;;;;;;;17.93;61.78;99391.66;4171414;28;19909;-72
2024/04/08 06:00:48;;;;;;;;;;;;;;;18.12;61.33;99381.94;4166780;28;19909;-72
2024/04/08 06:02:52;;;;;;;;;;;;;;;18.12;60.94;99381.94;4166910;28;19972;-71
2024/04/08 06:04:53;;;;;;;;;;;;;;;18.35;60.28;99376.03;4165805;28;19917;-71
2024/04/08 06:06:53;;;;;;;;;;;;;;;18.09;61.47;99375.03;4167032;28;20249;-72
2024/04/08 06:09:03;;;;;;;;;;;;;;;17.98;61.45;99372.16;4166479;28;19917;-71
2024/04/08 06:11:03;;;;;;;;;;;;;;;18.10;61.13;99373.19;4165946;28;19917;-71
2024/04/08 06:13:03;;;;;;;;;;;;;;;18.21;60.84;99369.84;4166446;28;19909;-72
2024/04/08 06:15:05;;;;;;;;;;;;;;;18.34;60.78;99373.53;4165818;28;19916;-72
2024/04/08 06:17:06;;;;;;;;;;;;;;;18.14;61.32;99369.00;4165116;28;20392;-72
2024/04/08 06:19:06;;;;;;;;;;;;;;;18.30;60.63;99366.91;4165588;28;20023;-72
2024/04/08 06:21:06;;;;;;;;;;;;;;;18.42;60.56;99361.66;4165241;28;20357;-72
2024/04/08 06:23:07;;;;;;;;;;;;;;;18.49;60.13;99366.00;4165710;28;20055;-72
2024/04/08 06:25:09;;;;;;;;;;;;;;;18.70;59.61;99367.59;4165652;28;19913;-72
2024/04/08 06:27:09;;;;;;;;;;;;;;;18.81;59.30;99367.97;4164401;28;19999;-72
2024/04/08 06:29:09;;;;;;;;;;;;;;;18.85;59.06;99372.75;4165878;28;19920;-71
2024/04/08 06:31:10;;;;;;;;;;;;;;;18.97;58.73;99369.38;4164917;28;19996;-71
2024/04/08 06:33:10;;;;;;;;;;;;;;;19.02;58.74;99369.56;4165891;28;19913;-73
2024/04/08 06:35:10;;;;;;;;;;;;;;;19.01;59.15;99370.59;4165788;28;20350;-72
2024/04/08 06:37:10;;;;;;;;;;;;;;;19.15;58.69;99366.78;4165827;28;19917;-72
2024/04/08 06:39:11;;;;;;;;;;;;;;;19.12;58.48;99359.06;4167799;28;19909;-72
2024/04/08 06:41:11;;;;;;;;;;;;;;;19.10;58.42;99366.59;4165846;28;19908;-72
2024/04/08 06:43:12;;;;;;;;;;;;;;;19.07;58.52;99363.47;4165441;28;19954;-72
2024/04/08 06:45:12;;;;;;;;;;;;;;;18.98;58.71;99362.94;4165262;28;19915;-72
2024/04/08 06:47:12;;;;;;;;;;;;;;;19.00;58.34;99375.19;4165644;28;20373;-72
2024/04/08 06:49:13;;;;;;;;;;;;;;;19.22;57.88;99369.44;4165077;28;19916;-72
2024/04/08 06:51:13;;;;;;;;;;;;;;;18.68;58.95;99374.28;4164889;28;20345;-71
2024/04/08 06:53:13;;;;;;;;;;;;;;;19.12;58.16;99369.09;4165521;28;19909;-72
2024/04/08 06:55:16;;;;;;;;;;;;;;;19.08;58.37;99368.66;4165395;28;20389;-72
2024/04/08 06:57:18;;;;;;;;;;;;;;;18.94;58.31;99375.22;4166080;28;19937;-72
2024/04/08 06:59:18;;;;;;;;;;;;;;;18.86;58.52;99371.69;4172244;28;19935;-74
2024/04/08 07:01:20;;;;;;;;;;;;;;;18.86;58.55;99363.56;4174883;28;19972;-72
2024/04/08 07:03:20;;;;;;;;;;;;;;;18.97;58.69;99367.50;4165455;28;19921;-75
2024/04/08 07:05:20;;;;;;;;;;;;;;;18.88;59.18;99368.75;4164744;28;20001;-72
2024/04/08 07:07:21;;;;;;;;;;;;;;;18.98;58.79;99368.34;4165175;28;20419;-71
2024/04/08 07:09:25;;;;;;;;;;;;;;;19.14;58.53;99372.41;4165393;28;19917;-71
2024/04/08 07:11:26;;;;;;;;;;;;;;;18.99;58.55;99369.97;4165031;28;19992;-71
2024/04/08 07:13:27;;;;;;;;;;;;;;;19.07;58.41;99372.47;4163669;28;20282;-71
2024/04/08 07:15:28;;;;;;;;;;;;;;;19.20;58.18;99365.28;4165039;28;19991;-72
2024/04/08 07:17:28;;;;;;;;;;;;;;;19.34;57.78;99361.44;4163270;28;20649;-71
2024/04/08 07:19:29;;;;;;;;;;;;;;;19.45;57.20;99360.75;4164303;28;19909;-71
2024/04/08 07:21:29;;;;;;;;;;;;;;;19.75;56.74;99357.34;4165032;28;20350;-72
2024/04/08 07:23:30;;;;;;;;;;;;;;;19.95;55.67;99356.38;4168629;28;20377;-71
2024/04/08 07:25:30;;;;;;;;;;;;;;;19.86;56.02;99357.72;4165161;28;20274;-71
2024/04/08 07:27:31;;;;;;;;;;;;;;;19.97;55.76;99340.72;4165198;28;19909;-72
2024/04/08 07:29:31;;;;;;;;;;;;;;;20.24;53.96;99335.00;4164350;28;20372;-72
2024/04/08 07:31:32;;;;;;;;;;;;;;;20.32;53.17;99342.84;4165380;28;20300;-72
2024/04/08 07:33:32;;;;;;;;;;;;;;;20.44;53.05;99344.81;4165039;28;19966;-72
2024/04/08 07:35:32;;;;;;;;;;;;;;;20.66;52.81;99346.00;4163222;28;19964;-72
2024/04/08 07:37:33;;;;;;;;;;;;;;;20.72;52.73;99342.38;4163023;28;19967;-73
2024/04/08 07:39:33;;;;;;;;;;;;;;;20.72;52.48;99345.09;4163848;28;19909;-73
2024/04/08 07:41:34;;;;;;;;;;;;;;;20.65;52.68;99336.22;4164351;28;19920;-72
2024/04/08 07:43:36;;;;;;;;;;;;;;;20.79;51.94;99330.63;4164209;28;19966;-73
2024/04/08 07:45:38;;;;;;;;;;;;;;;21.13;51.42;99328.28;4164239;28;20412;-72
2024/04/08 07:47:39;;;;;;;;;;;;;;;21.45;50.58;99322.53;4164524;28;19909;-72
2024/04/08 07:49:40;;;;;;;;;;;;;;;21.56;50.74;99321.72;4162635;28;19909;-72
2024/04/08 07:51:40;;;;;;;;;;;;;;;21.64;50.67;99323.31;4164492;28;20334;-72
2024/04/08 07:53:40;;;;;;;;;;;;;;;21.83;49.99;99323.22;4164396;28;19956;-73
2024/04/08 07:55:41;;;;;;;;;;;;;;;21.78;49.83;99318.47;4164093;28;20019;-72
2024/04/08 07:57:41;;;;;;;;;;;;;;;22.16;49.29;99322.59;4164120;28;19913;-72
2024/04/08 07:59:41;;;;;;;;;;;;;;;22.31;48.97;99316.66;4163673;28;20248;-72
2024/04/08 08:01:42;;;;;;;;;;;;;;;22.65;48.28;99316.81;4164146;28;19939;-72
2024/04/08 08:03:42;;;;;;;;;;;;;;;22.89;47.77;99324.91;4163864;28;20365;-72
2024/04/08 08:05:42;;;;;;;;;;;;;;;22.75;47.79;99310.75;4163410;28;20545;-72
2024/04/08 08:07:43;;;;;;;;;;;;;;;22.99;47.38;99316.09;4162267;28;20322;-73
2024/04/08 08:09:43;;;;;;;;;;;;;;;23.37;46.18;99317.31;4162964;28;19980;-73
2024/04/08 08:11:44;;;;;;;;;;;;;;;23.47;45.87;99305.78;4163264;28;19909;-73
2024/04/08 08:13:44;;;;;;;;;;;;;;;23.63;45.87;99302.19;4163190;28;19909;-73
2024/04/08 08:15:52;;;;;;;;;;;;;;;23.82;45.32;99308.19;4163154;28;19909;-75
2024/04/08 08:17:54;;;;;;;;;;;;;;;23.55;45.69;99305.34;4163107;28;19944;-73
2024/04/08 08:19:57;;;;;;;;;;;;;;;23.95;44.94;99311.69;4161815;28;19909;-72
2024/04/08 08:21:58;;;;;;;;;;;;;;;23.86;44.72;99318.63;4163032;28;19909;-71
2024/04/08 08:23:58;;;;;;;;;;;;;;;24.02;44.42;99320.53;4163104;28;19936;-72
2024/04/08 08:26:00;;;;;;;;;;;;;;;24.38;43.04;99310.06;4162865;28;19999;-72
2024/04/08 08:28:00;;;;;;;;;;;;;;;24.65;41.85;99309.31;4163019;28;19909;-72
2024/04/08 08:30:00;;;;;;;;;;;;;;;24.47;42.77;99313.19;4162231;28;19913;-71
2024/04/08 08:32:01;;;;;;;;;;;;;;;24.63;42.21;99303.28;4162801;28;19908;-71
2024/04/08 08:34:01;;;;;;;;;;;;;;;24.63;41.97;99299.69;4162832;28;19916;-71
2024/04/08 08:36:02;;;;;;;;;;;;;;;25.02;41.04;99300.44;4162830;28;19913;-71
2024/04/08 08:38:02;;;;;;;;;;;;;;;25.19;40.84;99291.28;4163218;28;19909;-72
2024/04/08 08:40:03;;;;;;;;;;;;;;;25.45;39.67;99294.25;4162258;28;19964;-71
2024/04/08 08:42:07;;;;;;;;;;;;;;;25.79;39.29;99293.97;4162822;28;19909;-71
2024/04/08 08:44:08;;;;;;;;;;;;;;;25.95;38.81;99297.59;4161724;28;19909;-71
2024/04/08 08:46:08;;;;;;;;;;;;;;;26.06;38.91;99302.03;4161456;28;19936;-71
2024/04/08 08:48:09;;;;;;;;;;;;;;;26.07;39.16;99300.16;4162726;28;19909;-71
2024/04/08 08:50:12;;;;;;;;;;;;;;;25.71;39.35;99300.75;4163641;28;19909;-72
2024/04/08 08:52:12;;;;;;;;;;;;;;;25.91;39.10;99286.34;4164847;28;19916;-71
2024/04/08 08:54:13;;;;;;;;;;;;;;;26.15;38.83;99291.47;4162686;28;19913;-71
2024/04/08 08:56:16;;;;;;;;;;;;;;;26.63;37.82;99292.19;4163389;28;19913;-71
2024/04/08 08:58:17;;;;;;;;;;;;;;;26.72;37.99;99272.47;4161713;28;19987;-71
2024/04/08 09:00:18;;;;;;;;;;;;;;;26.72;37.23;99269.72;4161591;28;20015;-71
2024/04/08 09:02:18;;;;;;;;;;;;;;;26.92;36.63;99269.78;4162476;28;19909;-71
2024/04/08 09:04:18;;;;;;;;;;;;;;;27.23;36.17;99267.06;4162329;28;19962;-71
2024/04/08 09:06:20;;;;;;;;;;;;;;;27.42;35.19;99263.75;4163983;28;19909;-71
2024/04/08 09:08:20;;;;;;;;;;;;;;;27.53;34.52;99259.13;4163018;28;19986;-71
2024/04/08 09:10:23;;;;;;;;;;;;;;;27.98;34.48;99259.28;4161742;28;19921;-72
2024/04/08 09:12:23;;;;;;;;;;;;;;;28.29;34.35;99261.94;4161584;28;20012;-71
2024/04/08 09:14:24;;;;;;;;;;;;;;;27.83;33.22;99258.25;4162901;28;20328;-71
2024/04/08 09:16:24;;;;;;;;;;;;;;;27.89;32.72;99249.97;4162280;28;19963;-72
2024/04/08 09:18:24;;;;;;;;;;;;;;;28.12;33.07;99254.88;4161991;28;20297;-71
2024/04/08 09:20:25;;;;;;;;;;;;;;;28.44;32.77;99250.06;4160945;28;20408;-72
2024/04/08 09:22:25;;;;;;;;;;;;;;;28.27;33.09;99247.66;4162018;28;19955;-71
2024/04/08 09:24:27;;;;;;;;;;;;;;;27.95;33.24;99254.38;4161912;28;19909;-71
2024/04/08 09:26:27;;;;;;;;;;;;;;;28.11;31.16;99258.72;4162066;28;19966;-71
2024/04/08 09:28:28;;;;;;;;;;;;;;;28.33;28.46;99261.09;4161936;28;19979;-71
2024/04/08 09:30:28;;;;;;;;;;;;;;;28.18;28.46;99258.44;4161286;28;19917;-71
2024/04/08 09:32:29;;;;;;;;;;;;;;;28.07;27.31;99256.78;4161998;28;19937;-71
2024/04/08 09:34:30;;;;;;;;;;;;;;;28.13;26.97;99253.78;4161993;28;20316;-72
2024/04/08 09:36:31;;;;;;;;;;;;;;;28.51;26.36;99250.56;4161939;28;19928;-71
2024/04/08 09:38:32;;;;;;;;;;;;;;;28.44;26.26;99241.81;4161966;28;20020;-72
2024/04/08 09:40:32;;;;;;;;;;;;;;;28.47;26.55;99242.06;4161491;28;19941;-72
2024/04/08 09:42:33;;;;;;;;;;;;;;;28.67;26.34;99239.50;4161572;28;19908;-72
2024/04/08 09:44:34;;;;;;;;;;;;;;;29.14;25.94;99237.22;4161751;28;20016;-72
2024/04/08 09:46:35;;;;;;;;;;;;;;;29.06;25.48;99233.16;4161825;28;19913;-72
2024/04/08 09:48:36;;;;;;;;;;;;;;;29.10;25.21;99235.06;4161678;28;20452;-72
2024/04/08 09:50:37;;;;;;;;;;;;;;;29.16;25.20;99226.78;4161069;28;19913;-71
2024/04/08 09:52:38;;;;;;;;;;;;;;;29.32;25.09;99224.72;4161775;28;19959;-71
2024/04/08 09:54:39;;;;;;;;;;;;;;;29.18;25.33;99221.81;4162321;28;19970;-71
2024/04/08 09:56:40;;;;;;;;;;;;;;;29.29;25.35;99219.78;4164086;28;19912;-72
2024/04/08 09:58:41;;;;;;;;;;;;;;;28.96;25.81;99223.09;4162474;28;19909;-71
2024/04/08 10:00:42;;;;;;;;;;;;;;;28.71;26.07;99224.91;4162117;28;19916;-70
2024/04/08 10:02:43;;;;;;;;;;;;;;;29.47;25.35;99215.50;4162458;28;20008;-70
2024/04/08 10:04:43;;;;;;;;;;;;;;;29.75;24.35;99215.75;4162189;28;20008;-71
2024/04/08 10:06:43;;;;;;;;;;;;;;;29.73;24.93;99211.38;4162603;28;19956;-71
2024/04/08 10:08:45;;;;;;;;;;;;;;;29.68;25.02;99216.09;4161903;28;19925;-70
2024/04/08 10:10:45;;;;;;;;;;;;;;;29.75;24.16;99215.75;4161611;28;19909;-72
2024/04/08 10:12:45;;;;;;;;;;;;;;;29.49;24.65;99216.03;4161718;28;19959;-72
2024/04/08 10:14:47;;;;;;;;;;;;;;;29.58;24.81;99214.28;4161596;28;19948;-71
2024/04/08 10:16:48;;;;;;;;;;;;;;;29.98;24.33;99208.63;4161894;28;19917;-72
2024/04/08 10:18:51;;;;;;;;;;;;;;;30.30;23.52;99210.69;4161521;28;19913;-71
2024/04/08 10:20:53;;;;;;;;;;;;;;;30.12;23.49;99200.47;4160178;28;20373;-72
2024/04/08 10:22:53;;;;;;;;;;;;;;;30.19;22.50;99193.47;4161524;28;19913;-72
2024/04/08 10:24:54;;;;;;;;;;;;;;;30.41;21.99;99199.53;4161625;28;20024;-71
2024/04/08 10:27:12;;;;;;;;;;;;;;;30.24;21.85;99195.31;4161879;28;19912;-72
2024/04/08 10:29:12;;;;;;;;;;;;;;;30.52;21.39;99195.50;4161848;28;19913;-71